sensor_id;sensor_type;location;lat;lon;timestamp;temperature;humidity
64685;DHT22;51109;47.414;18.954;2024-01-30T00:01:37;0.20;99.90
64685;DHT22;51109;47.414;18.954;2024-01-30T00:04:03;0.20;99.90
64685;DHT22;51109;47.414;18.954;2024-01-30T00:06:29;0.10;99.90
64685;DHT22;51109;47.414;18.954;2024-01-30T00:08:55;0.10;99.90
64685;DHT22;51109;47.414;18.954;2024-01-30T00:11:20;0.10;99.90
64685;DHT22;51109;47.414;18.954;2024-01-30T00:13:46;0.20;99.90
64685;DHT22;51109;47.414;18.954;2024-01-30T00:16:22;0.20;99.90
64685;DHT22;51109;47.414;18.954;2024-01-30T00:18:48;0.20;99.90
64685;DHT22;51109;47.414;18.954;2024-01-30T00:21:14;0.10;99.90
64685;DHT22;51109;47.414;18.954;2024-01-30T00:23:40;0.20;99.90
64685;DHT22;51109;47.414;18.954;2024-01-30T00:26:06;0.30;99.90
64685;DHT22;51109;47.414;18.954;2024-01-30T00:28:32;0.40;99.90
64685;DHT22;51109;47.414;18.954;2024-01-30T00:30:58;0.40;99.90
64685;DHT22;51109;47.414;18.954;2024-01-30T00:33:23;0.40;99.90
64685;DHT22;51109;47.414;18.954;2024-01-30T00:35:49;0.40;99.90
64685;DHT22;51109;47.414;18.954;2024-01-30T00:38:15;0.40;99.90
64685;DHT22;51109;47.414;18.954;2024-01-30T00:40:41;0.40;99.90
64685;DHT22;51109;47.414;18.954;2024-01-30T00:43:06;0.50;99.90
64685;DHT22;51109;47.414;18.954;2024-01-30T00:45:32;0.40;99.90
64685;DHT22;51109;47.414;18.954;2024-01-30T00:47:58;0.40;99.90
64685;DHT22;51109;47.414;18.954;2024-01-30T00:50:24;0.30;99.90
64685;DHT22;51109;47.414;18.954;2024-01-30T00:52:49;0.30;99.90
64685;DHT22;51109;47.414;18.954;2024-01-30T00:55:15;0.30;99.90
64685;DHT22;51109;47.414;18.954;2024-01-30T00:57:41;0.20;99.90
64685;DHT22;51109;47.414;18.954;2024-01-30T01:00:07;0.20;99.90
64685;DHT22;51109;47.414;18.954;2024-01-30T01:02:37;0.20;99.90
64685;DHT22;51109;47.414;18.954;2024-01-30T01:05:05;0.00;99.90
64685;DHT22;51109;47.414;18.954;2024-01-30T01:07:31;0.00;99.90
64685;DHT22;51109;47.414;18.954;2024-01-30T01:09:56;-0.10;99.90
64685;DHT22;51109;47.414;18.954;2024-01-30T01:12:22;-0.20;99.90
64685;DHT22;51109;47.414;18.954;2024-01-30T01:14:48;-0.30;99.90
64685;DHT22;51109;47.414;18.954;2024-01-30T01:17:14;-0.30;99.90
64685;DHT22;51109;47.414;18.954;2024-01-30T01:19:40;-0.30;99.90
64685;DHT22;51109;47.414;18.954;2024-01-30T01:22:05;-0.20;99.90
64685;DHT22;51109;47.414;18.954;2024-01-30T01:24:31;-0.30;99.90
64685;DHT22;51109;47.414;18.954;2024-01-30T01:26:58;-0.30;99.90
64685;DHT22;51109;47.414;18.954;2024-01-30T01:29:24;-0.60;99.90
64685;DHT22;51109;47.414;18.954;2024-01-30T01:31:57;-0.60;99.90
64685;DHT22;51109;47.414;18.954;2024-01-30T01:34:23;-0.50;99.90
64685;DHT22;51109;47.414;18.954;2024-01-30T01:36:50;-0.60;99.90
64685;DHT22;51109;47.414;18.954;2024-01-30T01:39:16;-0.50;99.90
64685;DHT22;51109;47.414;18.954;2024-01-30T01:41:42;-0.70;99.90
64685;DHT22;51109;47.414;18.954;2024-01-30T01:44:08;-0.60;99.90
64685;DHT22;51109;47.414;18.954;2024-01-30T01:46:35;-0.80;99.90
64685;DHT22;51109;47.414;18.954;2024-01-30T01:49:02;-0.80;99.90
64685;DHT22;51109;47.414;18.954;2024-01-30T01:51:31;-0.50;99.90
64685;DHT22;51109;47.414;18.954;2024-01-30T01:53:58;-0.40;99.90
64685;DHT22;51109;47.414;18.954;2024-01-30T01:56:27;-0.30;99.90
64685;DHT22;51109;47.414;18.954;2024-01-30T01:58:55;-0.20;99.90
64685;DHT22;51109;47.414;18.954;2024-01-30T02:01:21;-0.20;99.90
64685;DHT22;51109;47.414;18.954;2024-01-30T02:03:49;-0.20;99.90
64685;DHT22;51109;47.414;18.954;2024-01-30T02:06:15;-0.10;99.90
64685;DHT22;51109;47.414;18.954;2024-01-30T02:08:41;-0.10;99.90
64685;DHT22;51109;47.414;18.954;2024-01-30T02:11:08;-0.10;99.90
64685;DHT22;51109;47.414;18.954;2024-01-30T02:13:34;-0.10;99.90
64685;DHT22;51109;47.414;18.954;2024-01-30T02:16:00;-0.20;99.90
64685;DHT22;51109;47.414;18.954;2024-01-30T02:18:26;-0.20;99.90
64685;DHT22;51109;47.414;18.954;2024-01-30T02:20:54;-0.20;99.90
64685;DHT22;51109;47.414;18.954;2024-01-30T02:23:20;-0.20;99.90
64685;DHT22;51109;47.414;18.954;2024-01-30T02:25:45;-0.20;99.90
64685;DHT22;51109;47.414;18.954;2024-01-30T02:28:15;-0.10;99.90
64685;DHT22;51109;47.414;18.954;2024-01-30T02:30:45;-0.20;99.90
64685;DHT22;51109;47.414;18.954;2024-01-30T02:33:14;-0.20;99.90
64685;DHT22;51109;47.414;18.954;2024-01-30T02:35:40;-0.20;99.90
64685;DHT22;51109;47.414;18.954;2024-01-30T02:38:06;-0.20;99.90
64685;DHT22;51109;47.414;18.954;2024-01-30T02:40:31;-0.20;99.90
64685;DHT22;51109;47.414;18.954;2024-01-30T02:43:01;-0.20;99.90
64685;DHT22;51109;47.414;18.954;2024-01-30T02:45:27;-0.20;99.90
64685;DHT22;51109;47.414;18.954;2024-01-30T02:47:53;-0.20;99.90
64685;DHT22;51109;47.414;18.954;2024-01-30T02:50:19;-0.20;99.90
64685;DHT22;51109;47.414;18.954;2024-01-30T02:52:45;-0.10;99.90
64685;DHT22;51109;47.414;18.954;2024-01-30T02:55:11;-0.10;99.90
64685;DHT22;51109;47.414;18.954;2024-01-30T02:57:38;0.00;99.90
64685;DHT22;51109;47.414;18.954;2024-01-30T03:00:04;0.00;99.90
64685;DHT22;51109;47.414;18.954;2024-01-30T03:02:32;0.00;99.90
64685;DHT22;51109;47.414;18.954;2024-01-30T03:04:59;0.00;99.90
64685;DHT22;51109;47.414;18.954;2024-01-30T03:07:25;0.00;99.90
64685;DHT22;51109;47.414;18.954;2024-01-30T03:09:51;0.00;99.90
64685;DHT22;51109;47.414;18.954;2024-01-30T03:12:17;0.00;99.90
64685;DHT22;51109;47.414;18.954;2024-01-30T03:14:42;0.00;99.90
64685;DHT22;51109;47.414;18.954;2024-01-30T03:17:08;-0.10;99.90
64685;DHT22;51109;47.414;18.954;2024-01-30T03:19:34;-0.10;99.90
64685;DHT22;51109;47.414;18.954;2024-01-30T03:22:00;-0.10;99.90
64685;DHT22;51109;47.414;18.954;2024-01-30T03:24:25;0.00;99.90
64685;DHT22;51109;47.414;18.954;2024-01-30T03:26:51;0.00;99.90
64685;DHT22;51109;47.414;18.954;2024-01-30T03:29:17;0.00;99.90
64685;DHT22;51109;47.414;18.954;2024-01-30T03:31:43;0.00;99.90
64685;DHT22;51109;47.414;18.954;2024-01-30T03:34:08;-0.10;99.90
64685;DHT22;51109;47.414;18.954;2024-01-30T03:36:34;-0.20;99.90
64685;DHT22;51109;47.414;18.954;2024-01-30T03:39:01;-0.30;99.90
64685;DHT22;51109;47.414;18.954;2024-01-30T03:41:26;-0.40;99.90
64685;DHT22;51109;47.414;18.954;2024-01-30T03:43:52;-0.50;99.90
64685;DHT22;51109;47.414;18.954;2024-01-30T03:46:18;-0.60;99.90
64685;DHT22;51109;47.414;18.954;2024-01-30T03:48:45;-0.50;99.90
64685;DHT22;51109;47.414;18.954;2024-01-30T03:51:11;-0.50;99.90
64685;DHT22;51109;47.414;18.954;2024-01-30T03:53:44;-0.50;99.90
64685;DHT22;51109;47.414;18.954;2024-01-30T03:56:12;-0.60;99.90
64685;DHT22;51109;47.414;18.954;2024-01-30T03:58:39;-0.70;99.90
64685;DHT22;51109;47.414;18.954;2024-01-30T04:01:05;-0.60;99.90
64685;DHT22;51109;47.414;18.954;2024-01-30T04:03:30;-0.60;99.90
64685;DHT22;51109;47.414;18.954;2024-01-30T04:05:56;-0.60;99.90
64685;DHT22;51109;47.414;18.954;2024-01-30T04:08:22;-0.60;99.90
64685;DHT22;51109;47.414;18.954;2024-01-30T04:10:48;-0.60;99.90
64685;DHT22;51109;47.414;18.954;2024-01-30T04:13:14;-0.60;99.90
64685;DHT22;51109;47.414;18.954;2024-01-30T04:15:40;-0.70;99.90
64685;DHT22;51109;47.414;18.954;2024-01-30T04:18:06;-0.60;99.90
64685;DHT22;51109;47.414;18.954;2024-01-30T04:20:32;-0.60;99.90
64685;DHT22;51109;47.414;18.954;2024-01-30T04:22:57;-0.60;99.90
64685;DHT22;51109;47.414;18.954;2024-01-30T04:25:23;-0.60;99.90
64685;DHT22;51109;47.414;18.954;2024-01-30T04:27:49;-0.50;99.90
64685;DHT22;51109;47.414;18.954;2024-01-30T04:30:15;-0.50;99.90
64685;DHT22;51109;47.414;18.954;2024-01-30T04:32:40;-0.50;99.90
64685;DHT22;51109;47.414;18.954;2024-01-30T04:35:06;-0.50;99.90
64685;DHT22;51109;47.414;18.954;2024-01-30T04:37:32;-0.50;99.90
64685;DHT22;51109;47.414;18.954;2024-01-30T04:39:58;-0.40;99.90
64685;DHT22;51109;47.414;18.954;2024-01-30T04:42:24;-0.40;99.90
64685;DHT22;51109;47.414;18.954;2024-01-30T04:44:50;-0.40;99.90
64685;DHT22;51109;47.414;18.954;2024-01-30T04:47:16;-0.40;99.90
64685;DHT22;51109;47.414;18.954;2024-01-30T04:49:42;-0.40;99.90
64685;DHT22;51109;47.414;18.954;2024-01-30T04:52:08;-0.40;99.90
64685;DHT22;51109;47.414;18.954;2024-01-30T04:54:35;-0.40;99.90
64685;DHT22;51109;47.414;18.954;2024-01-30T04:57:02;-0.40;99.90
64685;DHT22;51109;47.414;18.954;2024-01-30T04:59:28;-0.50;99.90
64685;DHT22;51109;47.414;18.954;2024-01-30T05:01:54;-0.50;99.90
64685;DHT22;51109;47.414;18.954;2024-01-30T05:04:19;-0.50;99.90
64685;DHT22;51109;47.414;18.954;2024-01-30T05:06:45;-0.60;99.90
64685;DHT22;51109;47.414;18.954;2024-01-30T05:09:11;-0.50;99.90
64685;DHT22;51109;47.414;18.954;2024-01-30T05:11:41;-0.50;99.90
64685;DHT22;51109;47.414;18.954;2024-01-30T05:14:07;-0.50;99.90
64685;DHT22;51109;47.414;18.954;2024-01-30T05:16:33;-0.40;99.90
64685;DHT22;51109;47.414;18.954;2024-01-30T05:18:59;-0.50;99.90
64685;DHT22;51109;47.414;18.954;2024-01-30T05:21:25;-0.50;99.90
64685;DHT22;51109;47.414;18.954;2024-01-30T05:23:50;-0.50;99.90
64685;DHT22;51109;47.414;18.954;2024-01-30T05:26:16;-0.50;99.90
64685;DHT22;51109;47.414;18.954;2024-01-30T05:28:42;-0.50;99.90
64685;DHT22;51109;47.414;18.954;2024-01-30T05:31:10;-0.50;99.90
64685;DHT22;51109;47.414;18.954;2024-01-30T05:33:36;-0.40;99.90
64685;DHT22;51109;47.414;18.954;2024-01-30T05:36:03;-0.40;99.90
64685;DHT22;51109;47.414;18.954;2024-01-30T05:38:29;-0.50;99.90
64685;DHT22;51109;47.414;18.954;2024-01-30T05:40:55;-0.50;99.90
64685;DHT22;51109;47.414;18.954;2024-01-30T05:43:21;-0.50;99.90
64685;DHT22;51109;47.414;18.954;2024-01-30T05:45:46;-0.40;99.90
64685;DHT22;51109;47.414;18.954;2024-01-30T05:48:12;-0.40;99.90
64685;DHT22;51109;47.414;18.954;2024-01-30T05:50:38;-0.40;99.90
64685;DHT22;51109;47.414;18.954;2024-01-30T05:53:04;-0.50;99.90
64685;DHT22;51109;47.414;18.954;2024-01-30T05:55:29;-0.50;99.90
64685;DHT22;51109;47.414;18.954;2024-01-30T05:57:55;-0.60;99.90
64685;DHT22;51109;47.414;18.954;2024-01-30T06:00:21;-0.60;99.90
64685;DHT22;51109;47.414;18.954;2024-01-30T06:02:47;-0.70;99.90
64685;DHT22;51109;47.414;18.954;2024-01-30T06:05:13;-0.70;99.90
64685;DHT22;51109;47.414;18.954;2024-01-30T06:07:38;-0.80;99.90
64685;DHT22;51109;47.414;18.954;2024-01-30T06:10:04;-0.80;99.90
64685;DHT22;51109;47.414;18.954;2024-01-30T06:12:31;-0.70;99.90
64685;DHT22;51109;47.414;18.954;2024-01-30T06:14:57;-0.80;99.90
64685;DHT22;51109;47.414;18.954;2024-01-30T06:17:23;-0.80;99.90
64685;DHT22;51109;47.414;18.954;2024-01-30T06:19:49;-0.80;99.90
64685;DHT22;51109;47.414;18.954;2024-01-30T06:22:16;-0.80;99.90
64685;DHT22;51109;47.414;18.954;2024-01-30T06:24:41;-0.80;99.90
64685;DHT22;51109;47.414;18.954;2024-01-30T06:27:07;-0.80;99.90
64685;DHT22;51109;47.414;18.954;2024-01-30T06:29:33;-0.80;99.90
64685;DHT22;51109;47.414;18.954;2024-01-30T06:31:59;-0.80;99.90
64685;DHT22;51109;47.414;18.954;2024-01-30T06:34:25;-0.70;99.90
64685;DHT22;51109;47.414;18.954;2024-01-30T06:36:52;-0.70;99.90
64685;DHT22;51109;47.414;18.954;2024-01-30T06:39:18;-0.60;99.90
64685;DHT22;51109;47.414;18.954;2024-01-30T06:41:44;-0.60;99.90
64685;DHT22;51109;47.414;18.954;2024-01-30T06:44:12;-0.50;99.90
64685;DHT22;51109;47.414;18.954;2024-01-30T06:46:38;-0.40;99.90
64685;DHT22;51109;47.414;18.954;2024-01-30T06:49:04;-0.40;99.90
64685;DHT22;51109;47.414;18.954;2024-01-30T06:51:30;-0.30;99.90
64685;DHT22;51109;47.414;18.954;2024-01-30T06:53:56;-0.20;99.90
64685;DHT22;51109;47.414;18.954;2024-01-30T06:56:22;-0.10;99.90
64685;DHT22;51109;47.414;18.954;2024-01-30T06:58:48;-0.10;99.90
64685;DHT22;51109;47.414;18.954;2024-01-30T07:01:15;0.00;99.90
64685;DHT22;51109;47.414;18.954;2024-01-30T07:03:40;0.00;99.90
64685;DHT22;51109;47.414;18.954;2024-01-30T07:06:06;0.10;99.90
64685;DHT22;51109;47.414;18.954;2024-01-30T07:08:32;0.20;99.90
64685;DHT22;51109;47.414;18.954;2024-01-30T07:10:58;0.30;99.90
64685;DHT22;51109;47.414;18.954;2024-01-30T07:13:24;0.40;99.90
64685;DHT22;51109;47.414;18.954;2024-01-30T07:15:50;0.40;99.90
64685;DHT22;51109;47.414;18.954;2024-01-30T07:18:16;0.40;99.90
64685;DHT22;51109;47.414;18.954;2024-01-30T07:20:42;0.50;99.90
64685;DHT22;51109;47.414;18.954;2024-01-30T07:23:15;0.60;99.90
64685;DHT22;51109;47.414;18.954;2024-01-30T07:25:43;0.60;99.90
64685;DHT22;51109;47.414;18.954;2024-01-30T07:28:10;0.70;99.90
64685;DHT22;51109;47.414;18.954;2024-01-30T07:30:37;0.70;99.90
64685;DHT22;51109;47.414;18.954;2024-01-30T07:33:02;0.90;99.90
64685;DHT22;51109;47.414;18.954;2024-01-30T07:35:28;0.90;99.90
64685;DHT22;51109;47.414;18.954;2024-01-30T07:37:54;1.00;99.90
64685;DHT22;51109;47.414;18.954;2024-01-30T07:40:20;1.10;99.90
64685;DHT22;51109;47.414;18.954;2024-01-30T07:42:46;1.10;99.90
64685;DHT22;51109;47.414;18.954;2024-01-30T07:45:12;1.20;99.90
64685;DHT22;51109;47.414;18.954;2024-01-30T07:47:37;1.20;99.90
64685;DHT22;51109;47.414;18.954;2024-01-30T07:50:03;1.20;99.90
64685;DHT22;51109;47.414;18.954;2024-01-30T07:52:29;1.20;99.90
64685;DHT22;51109;47.414;18.954;2024-01-30T07:54:55;1.30;99.90
64685;DHT22;51109;47.414;18.954;2024-01-30T07:57:39;1.30;99.90
64685;DHT22;51109;47.414;18.954;2024-01-30T08:00:06;1.30;99.90
64685;DHT22;51109;47.414;18.954;2024-01-30T08:02:33;1.30;99.90
64685;DHT22;51109;47.414;18.954;2024-01-30T08:04:58;1.20;99.90
64685;DHT22;51109;47.414;18.954;2024-01-30T08:07:24;1.30;99.90
64685;DHT22;51109;47.414;18.954;2024-01-30T08:09:50;1.30;99.90
64685;DHT22;51109;47.414;18.954;2024-01-30T08:12:16;1.30;99.90
64685;DHT22;51109;47.414;18.954;2024-01-30T08:14:42;1.30;99.90
64685;DHT22;51109;47.414;18.954;2024-01-30T08:17:08;1.40;99.90
64685;DHT22;51109;47.414;18.954;2024-01-30T08:19:34;1.40;99.90
64685;DHT22;51109;47.414;18.954;2024-01-30T08:22:00;1.40;99.90
64685;DHT22;51109;47.414;18.954;2024-01-30T08:24:25;1.40;99.90
64685;DHT22;51109;47.414;18.954;2024-01-30T08:26:51;1.40;99.90
64685;DHT22;51109;47.414;18.954;2024-01-30T08:29:17;1.60;99.90
64685;DHT22;51109;47.414;18.954;2024-01-30T08:31:43;1.60;99.90
64685;DHT22;51109;47.414;18.954;2024-01-30T08:34:09;1.60;99.90
64685;DHT22;51109;47.414;18.954;2024-01-30T08:36:36;1.80;99.90
64685;DHT22;51109;47.414;18.954;2024-01-30T08:39:02;1.80;99.90
64685;DHT22;51109;47.414;18.954;2024-01-30T08:41:28;2.00;99.90
64685;DHT22;51109;47.414;18.954;2024-01-30T08:43:54;2.10;99.90
64685;DHT22;51109;47.414;18.954;2024-01-30T08:46:20;2.20;99.90
64685;DHT22;51109;47.414;18.954;2024-01-30T08:48:46;2.30;99.90
64685;DHT22;51109;47.414;18.954;2024-01-30T08:51:13;2.30;99.90
64685;DHT22;51109;47.414;18.954;2024-01-30T08:53:39;2.40;99.90
64685;DHT22;51109;47.414;18.954;2024-01-30T08:56:06;2.50;99.90
64685;DHT22;51109;47.414;18.954;2024-01-30T08:58:32;2.70;99.90
64685;DHT22;51109;47.414;18.954;2024-01-30T09:00:58;2.90;99.90
64685;DHT22;51109;47.414;18.954;2024-01-30T09:03:24;3.00;99.90
64685;DHT22;51109;47.414;18.954;2024-01-30T09:05:50;3.10;99.90
64685;DHT22;51109;47.414;18.954;2024-01-30T09:08:16;3.10;99.90
64685;DHT22;51109;47.414;18.954;2024-01-30T09:10:42;3.00;99.90
64685;DHT22;51109;47.414;18.954;2024-01-30T09:13:08;3.20;99.90
64685;DHT22;51109;47.414;18.954;2024-01-30T09:15:33;3.30;99.90
64685;DHT22;51109;47.414;18.954;2024-01-30T09:17:59;3.40;99.90
64685;DHT22;51109;47.414;18.954;2024-01-30T09:20:25;3.50;99.90
64685;DHT22;51109;47.414;18.954;2024-01-30T09:22:51;3.50;99.90
64685;DHT22;51109;47.414;18.954;2024-01-30T09:25:16;3.50;99.90
64685;DHT22;51109;47.414;18.954;2024-01-30T09:27:44;3.50;99.90
64685;DHT22;51109;47.414;18.954;2024-01-30T09:30:10;3.80;99.90
64685;DHT22;51109;47.414;18.954;2024-01-30T09:32:36;3.90;99.90
64685;DHT22;51109;47.414;18.954;2024-01-30T09:35:01;3.90;99.90
64685;DHT22;51109;47.414;18.954;2024-01-30T09:37:27;3.90;99.90
64685;DHT22;51109;47.414;18.954;2024-01-30T09:39:53;4.10;99.90
64685;DHT22;51109;47.414;18.954;2024-01-30T09:42:33;4.00;99.90
64685;DHT22;51109;47.414;18.954;2024-01-30T09:45:03;4.10;99.90
64685;DHT22;51109;47.414;18.954;2024-01-30T09:47:40;4.10;99.90
64685;DHT22;51109;47.414;18.954;2024-01-30T09:50:09;4.10;99.90
64685;DHT22;51109;47.414;18.954;2024-01-30T09:52:35;4.20;99.90
64685;DHT22;51109;47.414;18.954;2024-01-30T09:55:01;4.20;99.90
64685;DHT22;51109;47.414;18.954;2024-01-30T09:57:28;4.10;99.90
64685;DHT22;51109;47.414;18.954;2024-01-30T09:59:54;4.00;99.90
64685;DHT22;51109;47.414;18.954;2024-01-30T10:02:25;3.90;99.90
64685;DHT22;51109;47.414;18.954;2024-01-30T10:04:52;4.00;99.90
64685;DHT22;51109;47.414;18.954;2024-01-30T10:07:18;4.20;99.90
64685;DHT22;51109;47.414;18.954;2024-01-30T10:09:45;4.40;99.90
64685;DHT22;51109;47.414;18.954;2024-01-30T10:12:11;4.40;99.90
64685;DHT22;51109;47.414;18.954;2024-01-30T10:14:41;4.20;99.90
64685;DHT22;51109;47.414;18.954;2024-01-30T10:17:09;4.00;99.90
64685;DHT22;51109;47.414;18.954;2024-01-30T10:19:40;3.90;99.90
64685;DHT22;51109;47.414;18.954;2024-01-30T10:22:06;4.00;99.90
64685;DHT22;51109;47.414;18.954;2024-01-30T10:24:33;4.20;99.90
64685;DHT22;51109;47.414;18.954;2024-01-30T10:27:01;4.50;99.90
64685;DHT22;51109;47.414;18.954;2024-01-30T10:29:28;4.70;99.90
64685;DHT22;51109;47.414;18.954;2024-01-30T10:31:58;4.70;99.90
64685;DHT22;51109;47.414;18.954;2024-01-30T10:34:24;4.50;99.90
64685;DHT22;51109;47.414;18.954;2024-01-30T10:36:50;4.20;99.90
64685;DHT22;51109;47.414;18.954;2024-01-30T10:39:18;4.10;99.90
64685;DHT22;51109;47.414;18.954;2024-01-30T10:41:47;4.00;99.90
64685;DHT22;51109;47.414;18.954;2024-01-30T10:44:18;4.20;99.90
64685;DHT22;51109;47.414;18.954;2024-01-30T10:46:50;4.10;99.90
64685;DHT22;51109;47.414;18.954;2024-01-30T10:49:18;4.20;99.90
64685;DHT22;51109;47.414;18.954;2024-01-30T10:51:45;4.30;99.90
64685;DHT22;51109;47.414;18.954;2024-01-30T10:54:13;4.40;99.90
64685;DHT22;51109;47.414;18.954;2024-01-30T10:56:40;4.70;99.90
64685;DHT22;51109;47.414;18.954;2024-01-30T10:59:06;5.00;99.90
64685;DHT22;51109;47.414;18.954;2024-01-30T11:01:32;4.90;99.90
64685;DHT22;51109;47.414;18.954;2024-01-30T11:03:58;4.70;99.90
64685;DHT22;51109;47.414;18.954;2024-01-30T11:06:25;4.60;99.90
64685;DHT22;51109;47.414;18.954;2024-01-30T11:09:04;4.60;99.90
64685;DHT22;51109;47.414;18.954;2024-01-30T11:11:51;4.90;99.90
64685;DHT22;51109;47.414;18.954;2024-01-30T11:14:26;5.10;99.90
64685;DHT22;51109;47.414;18.954;2024-01-30T11:16:52;5.10;99.90
64685;DHT22;51109;47.414;18.954;2024-01-30T11:19:31;5.10;99.90
64685;DHT22;51109;47.414;18.954;2024-01-30T11:21:57;4.80;99.90
64685;DHT22;51109;47.414;18.954;2024-01-30T11:24:23;4.70;99.90
64685;DHT22;51109;47.414;18.954;2024-01-30T11:26:55;4.80;99.90
64685;DHT22;51109;47.414;18.954;2024-01-30T11:29:24;4.90;99.90
64685;DHT22;51109;47.414;18.954;2024-01-30T11:31:54;5.10;99.90
64685;DHT22;51109;47.414;18.954;2024-01-30T11:34:21;5.20;99.90
64685;DHT22;51109;47.414;18.954;2024-01-30T11:36:58;5.20;99.90
64685;DHT22;51109;47.414;18.954;2024-01-30T11:39:25;5.10;99.90
64685;DHT22;51109;47.414;18.954;2024-01-30T11:41:52;5.30;99.90
64685;DHT22;51109;47.414;18.954;2024-01-30T11:44:24;5.50;99.90
64685;DHT22;51109;47.414;18.954;2024-01-30T11:46:52;5.70;99.90
64685;DHT22;51109;47.414;18.954;2024-01-30T11:49:18;5.90;99.90
64685;DHT22;51109;47.414;18.954;2024-01-30T11:51:47;5.90;99.90
64685;DHT22;51109;47.414;18.954;2024-01-30T11:54:16;6.20;99.90
64685;DHT22;51109;47.414;18.954;2024-01-30T11:56:43;6.30;99.90
64685;DHT22;51109;47.414;18.954;2024-01-30T11:59:09;6.30;99.90
64685;DHT22;51109;47.414;18.954;2024-01-30T12:01:35;6.20;99.90
64685;DHT22;51109;47.414;18.954;2024-01-30T12:04:01;6.30;99.90
64685;DHT22;51109;47.414;18.954;2024-01-30T12:06:28;6.30;99.90
64685;DHT22;51109;47.414;18.954;2024-01-30T12:08:59;6.40;99.90
64685;DHT22;51109;47.414;18.954;2024-01-30T12:11:28;6.40;99.90
64685;DHT22;51109;47.414;18.954;2024-01-30T12:13:56;6.40;99.90
64685;DHT22;51109;47.414;18.954;2024-01-30T12:16:22;6.40;99.90
64685;DHT22;51109;47.414;18.954;2024-01-30T12:18:49;6.70;99.90
64685;DHT22;51109;47.414;18.954;2024-01-30T12:21:17;6.70;99.90
64685;DHT22;51109;47.414;18.954;2024-01-30T12:23:46;6.60;99.90
64685;DHT22;51109;47.414;18.954;2024-01-30T12:26:12;6.80;99.90
64685;DHT22;51109;47.414;18.954;2024-01-30T12:28:48;6.60;99.90
64685;DHT22;51109;47.414;18.954;2024-01-30T12:31:14;6.70;99.90
64685;DHT22;51109;47.414;18.954;2024-01-30T12:33:40;6.60;99.90
64685;DHT22;51109;47.414;18.954;2024-01-30T12:36:07;6.80;99.90
64685;DHT22;51109;47.414;18.954;2024-01-30T12:38:33;7.00;99.90
64685;DHT22;51109;47.414;18.954;2024-01-30T12:40:59;6.80;99.90
64685;DHT22;51109;47.414;18.954;2024-01-30T12:43:25;6.70;99.90
64685;DHT22;51109;47.414;18.954;2024-01-30T12:45:52;6.70;99.90
64685;DHT22;51109;47.414;18.954;2024-01-30T12:48:18;6.70;99.90
64685;DHT22;51109;47.414;18.954;2024-01-30T12:50:44;6.60;99.90
64685;DHT22;51109;47.414;18.954;2024-01-30T12:53:10;6.50;99.90
64685;DHT22;51109;47.414;18.954;2024-01-30T12:55:38;6.50;99.90
64685;DHT22;51109;47.414;18.954;2024-01-30T12:58:04;6.50;99.90
64685;DHT22;51109;47.414;18.954;2024-01-30T13:00:30;6.30;99.90
64685;DHT22;51109;47.414;18.954;2024-01-30T13:02:55;6.30;99.90
64685;DHT22;51109;47.414;18.954;2024-01-30T13:05:21;6.20;99.90
64685;DHT22;51109;47.414;18.954;2024-01-30T13:07:47;6.40;99.90
64685;DHT22;51109;47.414;18.954;2024-01-30T13:10:13;6.20;99.90
64685;DHT22;51109;47.414;18.954;2024-01-30T13:12:39;6.10;99.90
64685;DHT22;51109;47.414;18.954;2024-01-30T13:15:06;6.00;99.90
64685;DHT22;51109;47.414;18.954;2024-01-30T13:17:32;6.10;99.90
64685;DHT22;51109;47.414;18.954;2024-01-30T13:19:58;6.10;99.90
64685;DHT22;51109;47.414;18.954;2024-01-30T13:22:24;6.00;99.90
64685;DHT22;51109;47.414;18.954;2024-01-30T13:24:50;5.90;99.90
64685;DHT22;51109;47.414;18.954;2024-01-30T13:27:16;5.80;99.90
64685;DHT22;51109;47.414;18.954;2024-01-30T13:29:43;5.80;99.90
64685;DHT22;51109;47.414;18.954;2024-01-30T13:32:09;5.80;99.90
64685;DHT22;51109;47.414;18.954;2024-01-30T13:34:34;5.80;99.90
64685;DHT22;51109;47.414;18.954;2024-01-30T13:37:00;5.80;99.90
64685;DHT22;51109;47.414;18.954;2024-01-30T13:39:26;5.70;99.90
64685;DHT22;51109;47.414;18.954;2024-01-30T13:41:52;5.70;99.90
64685;DHT22;51109;47.414;18.954;2024-01-30T13:44:18;5.60;99.90
64685;DHT22;51109;47.414;18.954;2024-01-30T13:46:44;5.70;99.90
64685;DHT22;51109;47.414;18.954;2024-01-30T13:49:10;5.60;99.90
64685;DHT22;51109;47.414;18.954;2024-01-30T13:51:36;5.60;99.90
64685;DHT22;51109;47.414;18.954;2024-01-30T13:54:02;5.50;99.90
64685;DHT22;51109;47.414;18.954;2024-01-30T13:56:27;5.50;99.90
64685;DHT22;51109;47.414;18.954;2024-01-30T13:58:53;5.50;99.90
64685;DHT22;51109;47.414;18.954;2024-01-30T14:01:21;5.50;99.90
64685;DHT22;51109;47.414;18.954;2024-01-30T14:03:47;5.50;99.90
64685;DHT22;51109;47.414;18.954;2024-01-30T14:06:13;5.40;99.90
64685;DHT22;51109;47.414;18.954;2024-01-30T14:08:39;5.40;99.90
64685;DHT22;51109;47.414;18.954;2024-01-30T14:11:05;5.40;99.90
64685;DHT22;51109;47.414;18.954;2024-01-30T14:13:31;5.40;99.90
64685;DHT22;51109;47.414;18.954;2024-01-30T14:15:58;5.40;99.90
64685;DHT22;51109;47.414;18.954;2024-01-30T14:18:24;5.40;99.90
64685;DHT22;51109;47.414;18.954;2024-01-30T14:20:51;5.40;99.90
64685;DHT22;51109;47.414;18.954;2024-01-30T14:23:17;5.30;99.90
64685;DHT22;51109;47.414;18.954;2024-01-30T14:25:43;5.30;99.90
64685;DHT22;51109;47.414;18.954;2024-01-30T14:28:10;5.20;99.90
64685;DHT22;51109;47.414;18.954;2024-01-30T14:30:36;5.30;99.90
64685;DHT22;51109;47.414;18.954;2024-01-30T14:33:02;5.20;99.90
64685;DHT22;51109;47.414;18.954;2024-01-30T14:35:28;5.10;99.90
64685;DHT22;51109;47.414;18.954;2024-01-30T14:37:54;5.10;99.90
64685;DHT22;51109;47.414;18.954;2024-01-30T14:40:20;5.10;99.90
64685;DHT22;51109;47.414;18.954;2024-01-30T14:42:46;5.10;99.90
64685;DHT22;51109;47.414;18.954;2024-01-30T14:45:12;5.10;99.90
64685;DHT22;51109;47.414;18.954;2024-01-30T14:47:38;5.00;99.90
64685;DHT22;51109;47.414;18.954;2024-01-30T14:50:05;5.00;99.90
64685;DHT22;51109;47.414;18.954;2024-01-30T14:52:31;5.00;99.90
64685;DHT22;51109;47.414;18.954;2024-01-30T14:54:58;4.90;99.90
64685;DHT22;51109;47.414;18.954;2024-01-30T14:57:27;4.90;99.90
64685;DHT22;51109;47.414;18.954;2024-01-30T14:59:54;4.80;99.90
64685;DHT22;51109;47.414;18.954;2024-01-30T15:02:20;4.80;99.90
64685;DHT22;51109;47.414;18.954;2024-01-30T15:04:45;4.70;99.90
64685;DHT22;51109;47.414;18.954;2024-01-30T15:07:11;4.70;99.90
64685;DHT22;51109;47.414;18.954;2024-01-30T15:09:37;4.50;99.90
64685;DHT22;51109;47.414;18.954;2024-01-30T15:12:03;4.50;99.90
64685;DHT22;51109;47.414;18.954;2024-01-30T15:14:29;4.50;99.90
64685;DHT22;51109;47.414;18.954;2024-01-30T15:16:55;4.40;99.90
64685;DHT22;51109;47.414;18.954;2024-01-30T15:19:21;4.30;99.90
64685;DHT22;51109;47.414;18.954;2024-01-30T15:21:47;4.30;99.90